sensor_id;sensor_type;location;lat;lon;timestamp;P1;durP1;ratioP1;P2;durP2;ratioP2
58966;SDS011;44744;51.894;5.080;2022-09-09T00:00:17;5.30;;;1.90;;
58966;SDS011;44744;51.894;5.080;2022-09-09T00:02:21;3.40;;;1.60;;
58966;SDS011;44744;51.894;5.080;2022-09-09T00:03:27;3.20;;;1.80;;
58966;SDS011;44744;51.894;5.080;2022-09-09T00:05:27;4.10;;;1.40;;
58966;SDS011;44744;51.894;5.080;2022-09-09T00:06:30;4.00;;;1.70;;
58966;SDS011;44744;51.894;5.080;2022-09-09T00:07:49;4.30;;;1.90;;
58966;SDS011;44744;51.894;5.080;2022-09-09T00:09:04;4.60;;;1.50;;
58966;SDS011;44744;51.894;5.080;2022-09-09T00:11:41;4.10;;;1.80;;
58966;SDS011;44744;51.894;5.080;2022-09-09T00:16:34;2.80;;;1.50;;
58966;SDS011;44744;51.894;5.080;2022-09-09T00:17:51;3.40;;;1.70;;
58966;SDS011;44744;51.894;5.080;2022-09-09T00:18:58;4.30;;;1.70;;
58966;SDS011;44744;51.894;5.080;2022-09-09T00:21:35;4.90;;;1.90;;
58966;SDS011;44744;51.894;5.080;2022-09-09T00:22:38;3.50;;;1.90;;
58966;SDS011;44744;51.894;5.080;2022-09-09T00:23:51;3.00;;;1.60;;
58966;SDS011;44744;51.894;5.080;2022-09-09T00:24:55;2.90;;;1.90;;
58966;SDS011;44744;51.894;5.080;2022-09-09T00:27:22;2.20;;;1.50;;
58966;SDS011;44744;51.894;5.080;2022-09-09T00:28:32;4.30;;;1.90;;
58966;SDS011;44744;51.894;5.080;2022-09-09T00:30:50;4.10;;;2.00;;
58966;SDS011;44744;51.894;5.080;2022-09-09T00:31:53;4.10;;;1.60;;
58966;SDS011;44744;51.894;5.080;2022-09-09T00:32:58;6.20;;;1.90;;
58966;SDS011;44744;51.894;5.080;2022-09-09T00:34:12;6.70;;;1.70;;
58966;SDS011;44744;51.894;5.080;2022-09-09T00:36:32;4.20;;;1.90;;
58966;SDS011;44744;51.894;5.080;2022-09-09T00:37:34;4.20;;;2.10;;
58966;SDS011;44744;51.894;5.080;2022-09-09T00:38:36;2.90;;;1.70;;
58966;SDS011;44744;51.894;5.080;2022-09-09T00:39:41;4.70;;;2.10;;
58966;SDS011;44744;51.894;5.080;2022-09-09T00:40:49;4.00;;;2.00;;
58966;SDS011;44744;51.894;5.080;2022-09-09T00:43:49;6.00;;;2.00;;
58966;SDS011;44744;51.894;5.080;2022-09-09T00:44:32;4.40;;;2.00;;
58966;SDS011;44744;51.894;5.080;2022-09-09T00:45:42;3.20;;;2.00;;
58966;SDS011;44744;51.894;5.080;2022-09-09T00:48:15;4.50;;;2.10;;
58966;SDS011;44744;51.894;5.080;2022-09-09T00:50:56;3.50;;;2.00;;
58966;SDS011;44744;51.894;5.080;2022-09-09T00:52:18;3.30;;;1.80;;
58966;SDS011;44744;51.894;5.080;2022-09-09T00:54:36;2.40;;;1.60;;
58966;SDS011;44744;51.894;5.080;2022-09-09T00:58:31;4.30;;;2.20;;
58966;SDS011;44744;51.894;5.080;2022-09-09T00:59:42;4.10;;;2.00;;
58966;SDS011;44744;51.894;5.080;2022-09-09T01:00:51;3.70;;;2.00;;
58966;SDS011;44744;51.894;5.080;2022-09-09T01:01:57;3.50;;;2.00;;
58966;SDS011;44744;51.894;5.080;2022-09-09T01:03:02;3.60;;;1.80;;
58966;SDS011;44744;51.894;5.080;2022-09-09T01:04:13;3.30;;;2.00;;
58966;SDS011;44744;51.894;5.080;2022-09-09T01:05:24;4.10;;;2.40;;
58966;SDS011;44744;51.894;5.080;2022-09-09T01:06:30;6.80;;;2.50;;
58966;SDS011;44744;51.894;5.080;2022-09-09T01:07:32;4.80;;;2.40;;
58966;SDS011;44744;51.894;5.080;2022-09-09T01:09:52;7.50;;;2.50;;
58966;SDS011;44744;51.894;5.080;2022-09-09T01:10:55;6.90;;;2.10;;
58966;SDS011;44744;51.894;5.080;2022-09-09T01:13:11;5.50;;;2.40;;
58966;SDS011;44744;51.894;5.080;2022-09-09T01:15:35;4.80;;;2.20;;
58966;SDS011;44744;51.894;5.080;2022-09-09T01:16:38;3.70;;;2.00;;
58966;SDS011;44744;51.894;5.080;2022-09-09T01:19:01;5.20;;;2.00;;
58966;SDS011;44744;51.894;5.080;2022-09-09T01:26:04;3.40;;;2.40;;
58966;SDS011;44744;51.894;5.080;2022-09-09T01:27:13;4.60;;;2.00;;
58966;SDS011;44744;51.894;5.080;2022-09-09T01:28:17;5.20;;;2.30;;
58966;SDS011;44744;51.894;5.080;2022-09-09T01:29:29;6.40;;;2.50;;
58966;SDS011;44744;51.894;5.080;2022-09-09T01:30:34;5.20;;;2.90;;
58966;SDS011;44744;51.894;5.080;2022-09-09T01:31:40;5.80;;;2.40;;
58966;SDS011;44744;51.894;5.080;2022-09-09T01:32:55;4.60;;;2.40;;
58966;SDS011;44744;51.894;5.080;2022-09-09T01:33:57;5.60;;;2.80;;
58966;SDS011;44744;51.894;5.080;2022-09-09T01:34:58;4.70;;;2.90;;
58966;SDS011;44744;51.894;5.080;2022-09-09T01:36:12;4.60;;;2.20;;
58966;SDS011;44744;51.894;5.080;2022-09-09T01:37:20;4.50;;;2.40;;
58966;SDS011;44744;51.894;5.080;2022-09-09T01:38:20;4.50;;;2.40;;
58966;SDS011;44744;51.894;5.080;2022-09-09T01:39:21;4.20;;;2.50;;
58966;SDS011;44744;51.894;5.080;2022-09-09T01:40:22;6.90;;;2.40;;
58966;SDS011;44744;51.894;5.080;2022-09-09T01:41:23;3.80;;;2.50;;
58966;SDS011;44744;51.894;5.080;2022-09-09T01:42:23;7.30;;;3.10;;
58966;SDS011;44744;51.894;5.080;2022-09-09T01:43:24;6.80;;;2.90;;
58966;SDS011;44744;51.894;5.080;2022-09-09T01:44:25;3.90;;;2.40;;
58966;SDS011;44744;51.894;5.080;2022-09-09T01:45:27;4.00;;;2.60;;
58966;SDS011;44744;51.894;5.080;2022-09-09T01:46:27;6.00;;;2.90;;
58966;SDS011;44744;51.894;5.080;2022-09-09T01:47:28;4.60;;;2.80;;
58966;SDS011;44744;51.894;5.080;2022-09-09T01:48:29;5.40;;;2.40;;
58966;SDS011;44744;51.894;5.080;2022-09-09T01:49:31;4.50;;;2.60;;
58966;SDS011;44744;51.894;5.080;2022-09-09T01:50:31;4.70;;;2.40;;
58966;SDS011;44744;51.894;5.080;2022-09-09T01:51:32;5.50;;;2.50;;
58966;SDS011;44744;51.894;5.080;2022-09-09T01:52:33;4.30;;;2.60;;
58966;SDS011;44744;51.894;5.080;2022-09-09T01:53:36;5.50;;;2.40;;
58966;SDS011;44744;51.894;5.080;2022-09-09T01:54:38;4.60;;;2.30;;
58966;SDS011;44744;51.894;5.080;2022-09-09T01:55:39;5.80;;;2.50;;
58966;SDS011;44744;51.894;5.080;2022-09-09T02:00:14;4.50;;;2.30;;
58966;SDS011;44744;51.894;5.080;2022-09-09T02:02:54;5.60;;;2.70;;
58966;SDS011;44744;51.894;5.080;2022-09-09T02:04:01;5.30;;;2.70;;
58966;SDS011;44744;51.894;5.080;2022-09-09T02:07:39;4.90;;;2.80;;
58966;SDS011;44744;51.894;5.080;2022-09-09T02:08:42;6.10;;;2.40;;
58966;SDS011;44744;51.894;5.080;2022-09-09T02:09:49;4.60;;;2.70;;
58966;SDS011;44744;51.894;5.080;2022-09-09T02:12:07;5.50;;;2.80;;
58966;SDS011;44744;51.894;5.080;2022-09-09T02:13:14;4.90;;;2.50;;
58966;SDS011;44744;51.894;5.080;2022-09-09T02:14:22;6.70;;;2.50;;
58966;SDS011;44744;51.894;5.080;2022-09-09T02:17:13;4.50;;;2.30;;
58966;SDS011;44744;51.894;5.080;2022-09-09T02:19:08;4.00;;;2.30;;
58966;SDS011;44744;51.894;5.080;2022-09-09T02:19:45;7.20;;;2.90;;
58966;SDS011;44744;51.894;5.080;2022-09-09T02:20:50;5.00;;;2.50;;
58966;SDS011;44744;51.894;5.080;2022-09-09T02:21:53;7.40;;;2.50;;
58966;SDS011;44744;51.894;5.080;2022-09-09T02:22:56;8.80;;;2.70;;
58966;SDS011;44744;51.894;5.080;2022-09-09T02:23:58;4.90;;;3.10;;
58966;SDS011;44744;51.894;5.080;2022-09-09T02:25:01;4.20;;;2.20;;
58966;SDS011;44744;51.894;5.080;2022-09-09T02:26:03;7.50;;;2.70;;
58966;SDS011;44744;51.894;5.080;2022-09-09T02:27:05;4.80;;;2.60;;
58966;SDS011;44744;51.894;5.080;2022-09-09T02:28:08;3.40;;;2.40;;
58966;SDS011;44744;51.894;5.080;2022-09-09T02:29:14;5.70;;;2.70;;
58966;SDS011;44744;51.894;5.080;2022-09-09T02:30:19;6.50;;;2.30;;
58966;SDS011;44744;51.894;5.080;2022-09-09T02:31:21;5.80;;;2.50;;
58966;SDS011;44744;51.894;5.080;2022-09-09T02:32:24;5.00;;;2.70;;
58966;SDS011;44744;51.894;5.080;2022-09-09T02:33:27;6.00;;;2.50;;
58966;SDS011;44744;51.894;5.080;2022-09-09T02:34:30;6.10;;;2.30;;
58966;SDS011;44744;51.894;5.080;2022-09-09T02:35:36;5.70;;;2.60;;
58966;SDS011;44744;51.894;5.080;2022-09-09T02:36:38;5.40;;;2.70;;
58966;SDS011;44744;51.894;5.080;2022-09-09T02:37:42;5.80;;;2.80;;
58966;SDS011;44744;51.894;5.080;2022-09-09T02:38:47;5.40;;;2.70;;
58966;SDS011;44744;51.894;5.080;2022-09-09T02:39:48;4.50;;;2.40;;
58966;SDS011;44744;51.894;5.080;2022-09-09T02:40:48;7.20;;;2.50;;
58966;SDS011;44744;51.894;5.080;2022-09-09T02:41:48;6.10;;;2.40;;
58966;SDS011;44744;51.894;5.080;2022-09-09T02:42:49;8.40;;;2.60;;
58966;SDS011;44744;51.894;5.080;2022-09-09T02:43:49;5.90;;;2.70;;
58966;SDS011;44744;51.894;5.080;2022-09-09T02:44:49;4.90;;;2.80;;
58966;SDS011;44744;51.894;5.080;2022-09-09T02:45:57;7.20;;;2.40;;
58966;SDS011;44744;51.894;5.080;2022-09-09T02:47:47;4.80;;;2.40;;
58966;SDS011;44744;51.894;5.080;2022-09-09T02:49:02;8.10;;;2.50;;
58966;SDS011;44744;51.894;5.080;2022-09-09T02:51:33;4.40;;;2.50;;
58966;SDS011;44744;51.894;5.080;2022-09-09T02:54:59;4.30;;;2.60;;
58966;SDS011;44744;51.894;5.080;2022-09-09T02:57:17;4.50;;;2.40;;
58966;SDS011;44744;51.894;5.080;2022-09-09T02:58:22;6.40;;;2.60;;
58966;SDS011;44744;51.894;5.080;2022-09-09T02:59:22;8.20;;;3.10;;
58966;SDS011;44744;51.894;5.080;2022-09-09T03:00:26;4.70;;;2.60;;
58966;SDS011;44744;51.894;5.080;2022-09-09T03:01:27;5.00;;;2.80;;
58966;SDS011;44744;51.894;5.080;2022-09-09T03:02:27;4.40;;;2.80;;
58966;SDS011;44744;51.894;5.080;2022-09-09T03:03:28;5.80;;;3.00;;
58966;SDS011;44744;51.894;5.080;2022-09-09T03:04:28;4.70;;;2.70;;
58966;SDS011;44744;51.894;5.080;2022-09-09T03:05:29;7.70;;;3.20;;
58966;SDS011;44744;51.894;5.080;2022-09-09T03:06:29;5.90;;;3.10;;
58966;SDS011;44744;51.894;5.080;2022-09-09T03:07:29;4.70;;;2.60;;
58966;SDS011;44744;51.894;5.080;2022-09-09T03:08:30;4.50;;;2.90;;
58966;SDS011;44744;51.894;5.080;2022-09-09T03:09:30;6.40;;;2.40;;
58966;SDS011;44744;51.894;5.080;2022-09-09T03:10:32;8.30;;;3.00;;
58966;SDS011;44744;51.894;5.080;2022-09-09T03:11:41;5.00;;;2.80;;
58966;SDS011;44744;51.894;5.080;2022-09-09T03:12:44;6.60;;;3.00;;
58966;SDS011;44744;51.894;5.080;2022-09-09T03:15:22;6.70;;;3.30;;
58966;SDS011;44744;51.894;5.080;2022-09-09T03:16:25;5.60;;;3.00;;
58966;SDS011;44744;51.894;5.080;2022-09-09T03:17:28;7.40;;;3.70;;
58966;SDS011;44744;51.894;5.080;2022-09-09T03:18:30;7.90;;;3.50;;
58966;SDS011;44744;51.894;5.080;2022-09-09T03:19:30;5.80;;;3.70;;
58966;SDS011;44744;51.894;5.080;2022-09-09T03:20:31;8.60;;;3.30;;
58966;SDS011;44744;51.894;5.080;2022-09-09T03:21:31;5.60;;;3.30;;
58966;SDS011;44744;51.894;5.080;2022-09-09T03:22:32;9.20;;;3.70;;
58966;SDS011;44744;51.894;5.080;2022-09-09T03:23:32;8.10;;;3.00;;
58966;SDS011;44744;51.894;5.080;2022-09-09T03:24:32;5.50;;;3.80;;
58966;SDS011;44744;51.894;5.080;2022-09-09T03:25:32;8.20;;;3.20;;
58966;SDS011;44744;51.894;5.080;2022-09-09T03:26:33;6.80;;;3.50;;
58966;SDS011;44744;51.894;5.080;2022-09-09T03:27:33;5.20;;;2.90;;
58966;SDS011;44744;51.894;5.080;2022-09-09T03:28:33;7.60;;;3.60;;
58966;SDS011;44744;51.894;5.080;2022-09-09T03:29:34;6.80;;;3.30;;
58966;SDS011;44744;51.894;5.080;2022-09-09T03:30:34;4.70;;;3.20;;
58966;SDS011;44744;51.894;5.080;2022-09-09T03:31:34;5.10;;;2.90;;
58966;SDS011;44744;51.894;5.080;2022-09-09T03:32:34;5.20;;;2.70;;
58966;SDS011;44744;51.894;5.080;2022-09-09T03:33:35;4.80;;;2.60;;
58966;SDS011;44744;51.894;5.080;2022-09-09T03:34:36;6.70;;;3.00;;
58966;SDS011;44744;51.894;5.080;2022-09-09T03:35:36;7.30;;;2.90;;
58966;SDS011;44744;51.894;5.080;2022-09-09T03:36:37;6.30;;;3.00;;
58966;SDS011;44744;51.894;5.080;2022-09-09T03:37:37;4.30;;;2.60;;
58966;SDS011;44744;51.894;5.080;2022-09-09T03:38:37;9.20;;;3.20;;
58966;SDS011;44744;51.894;5.080;2022-09-09T03:39:37;4.90;;;2.90;;
58966;SDS011;44744;51.894;5.080;2022-09-09T03:40:38;5.40;;;2.90;;
58966;SDS011;44744;51.894;5.080;2022-09-09T03:41:38;5.10;;;2.80;;
58966;SDS011;44744;51.894;5.080;2022-09-09T03:42:39;9.10;;;2.70;;
58966;SDS011;44744;51.894;5.080;2022-09-09T03:43:40;6.80;;;2.40;;
58966;SDS011;44744;51.894;5.080;2022-09-09T03:44:40;7.30;;;2.80;;
58966;SDS011;44744;51.894;5.080;2022-09-09T03:45:41;5.90;;;2.90;;
58966;SDS011;44744;51.894;5.080;2022-09-09T03:46:47;4.50;;;2.70;;
58966;SDS011;44744;51.894;5.080;2022-09-09T03:47:47;4.50;;;2.90;;
58966;SDS011;44744;51.894;5.080;2022-09-09T03:48:47;4.60;;;2.60;;
58966;SDS011;44744;51.894;5.080;2022-09-09T03:49:48;7.10;;;2.90;;
58966;SDS011;44744;51.894;5.080;2022-09-09T03:50:49;8.30;;;2.80;;
58966;SDS011;44744;51.894;5.080;2022-09-09T03:51:50;7.00;;;3.50;;
58966;SDS011;44744;51.894;5.080;2022-09-09T03:52:51;4.60;;;2.70;;
58966;SDS011;44744;51.894;5.080;2022-09-09T03:53:51;7.30;;;2.90;;
58966;SDS011;44744;51.894;5.080;2022-09-09T03:54:52;5.60;;;3.00;;
58966;SDS011;44744;51.894;5.080;2022-09-09T03:55:53;8.20;;;3.10;;
58966;SDS011;44744;51.894;5.080;2022-09-09T03:56:55;6.70;;;3.10;;
58966;SDS011;44744;51.894;5.080;2022-09-09T03:57:55;6.80;;;3.10;;
58966;SDS011;44744;51.894;5.080;2022-09-09T03:58:57;6.30;;;3.20;;
58966;SDS011;44744;51.894;5.080;2022-09-09T03:59:57;6.80;;;2.90;;
58966;SDS011;44744;51.894;5.080;2022-09-09T04:01:07;5.30;;;3.20;;
58966;SDS011;44744;51.894;5.080;2022-09-09T04:02:09;5.80;;;3.00;;
58966;SDS011;44744;51.894;5.080;2022-09-09T04:03:13;5.60;;;3.30;;
58966;SDS011;44744;51.894;5.080;2022-09-09T04:04:13;4.20;;;2.70;;
58966;SDS011;44744;51.894;5.080;2022-09-09T04:05:13;6.40;;;3.10;;
58966;SDS011;44744;51.894;5.080;2022-09-09T04:06:14;8.20;;;3.30;;
58966;SDS011;44744;51.894;5.080;2022-09-09T04:07:16;4.90;;;3.10;;
58966;SDS011;44744;51.894;5.080;2022-09-09T04:08:17;4.40;;;2.60;;
58966;SDS011;44744;51.894;5.080;2022-09-09T04:09:18;4.90;;;2.90;;
58966;SDS011;44744;51.894;5.080;2022-09-09T04:10:18;5.40;;;2.70;;
58966;SDS011;44744;51.894;5.080;2022-09-09T04:11:19;9.90;;;3.30;;
58966;SDS011;44744;51.894;5.080;2022-09-09T04:12:24;6.90;;;3.10;;
58966;SDS011;44744;51.894;5.080;2022-09-09T04:13:25;10.70;;;3.30;;
58966;SDS011;44744;51.894;5.080;2022-09-09T04:14:27;5.60;;;3.10;;
58966;SDS011;44744;51.894;5.080;2022-09-09T04:15:27;5.80;;;2.90;;
58966;SDS011;44744;51.894;5.080;2022-09-09T04:16:27;5.20;;;3.10;;
58966;SDS011;44744;51.894;5.080;2022-09-09T04:17:31;6.50;;;3.20;;
58966;SDS011;44744;51.894;5.080;2022-09-09T04:18:34;7.10;;;3.00;;
58966;SDS011;44744;51.894;5.080;2022-09-09T04:19:37;5.00;;;2.80;;
58966;SDS011;44744;51.894;5.080;2022-09-09T04:20:38;4.60;;;3.00;;
58966;SDS011;44744;51.894;5.080;2022-09-09T04:21:38;8.50;;;3.50;;
58966;SDS011;44744;51.894;5.080;2022-09-09T04:22:40;6.10;;;3.50;;
58966;SDS011;44744;51.894;5.080;2022-09-09T04:23:40;5.10;;;3.50;;
58966;SDS011;44744;51.894;5.080;2022-09-09T04:24:41;6.20;;;3.70;;
58966;SDS011;44744;51.894;5.080;2022-09-09T04:25:50;5.30;;;3.70;;
58966;SDS011;44744;51.894;5.080;2022-09-09T04:26:52;11.30;;;4.80;;
58966;SDS011;44744;51.894;5.080;2022-09-09T04:27:53;6.90;;;4.10;;
58966;SDS011;44744;51.894;5.080;2022-09-09T04:29:55;7.00;;;4.20;;
58966;SDS011;44744;51.894;5.080;2022-09-09T04:30:55;6.00;;;3.80;;
58966;SDS011;44744;51.894;5.080;2022-09-09T04:31:56;8.50;;;4.50;;
58966;SDS011;44744;51.894;5.080;2022-09-09T04:32:57;7.60;;;4.30;;
58966;SDS011;44744;51.894;5.080;2022-09-09T04:33:57;9.20;;;3.90;;
58966;SDS011;44744;51.894;5.080;2022-09-09T04:34:58;6.10;;;3.20;;
58966;SDS011;44744;51.894;5.080;2022-09-09T04:35:58;8.00;;;4.00;;
58966;SDS011;44744;51.894;5.080;2022-09-09T04:36:59;7.50;;;3.50;;
58966;SDS011;44744;51.894;5.080;2022-09-09T04:37:59;7.40;;;3.30;;
58966;SDS011;44744;51.894;5.080;2022-09-09T04:39:00;8.10;;;3.30;;
58966;SDS011;44744;51.894;5.080;2022-09-09T04:40:00;8.70;;;3.40;;
58966;SDS011;44744;51.894;5.080;2022-09-09T04:41:04;8.70;;;3.30;;
58966;SDS011;44744;51.894;5.080;2022-09-09T04:42:05;6.70;;;3.60;;
58966;SDS011;44744;51.894;5.080;2022-09-09T04:43:05;6.70;;;3.00;;
58966;SDS011;44744;51.894;5.080;2022-09-09T04:44:05;8.90;;;3.50;;
58966;SDS011;44744;51.894;5.080;2022-09-09T04:45:06;6.00;;;3.00;;
58966;SDS011;44744;51.894;5.080;2022-09-09T04:46:06;5.60;;;2.60;;
58966;SDS011;44744;51.894;5.080;2022-09-09T04:50:18;12.40;;;3.30;;
58966;SDS011;44744;51.894;5.080;2022-09-09T04:51:19;7.00;;;2.90;;
58966;SDS011;44744;51.894;5.080;2022-09-09T04:52:20;5.00;;;3.40;;
58966;SDS011;44744;51.894;5.080;2022-09-09T04:53:20;5.40;;;3.10;;
58966;SDS011;44744;51.894;5.080;2022-09-09T04:54:21;12.00;;;3.50;;
58966;SDS011;44744;51.894;5.080;2022-09-09T04:55:21;6.40;;;3.40;;
58966;SDS011;44744;51.894;5.080;2022-09-09T04:56:21;7.40;;;3.10;;
58966;SDS011;44744;51.894;5.080;2022-09-09T04:57:22;7.50;;;2.70;;
58966;SDS011;44744;51.894;5.080;2022-09-09T04:58:22;5.80;;;3.00;;
58966;SDS011;44744;51.894;5.080;2022-09-09T04:59:22;9.00;;;3.30;;
58966;SDS011;44744;51.894;5.080;2022-09-09T05:00:23;6.90;;;2.70;;
58966;SDS011;44744;51.894;5.080;2022-09-09T05:01:24;6.60;;;2.90;;
58966;SDS011;44744;51.894;5.080;2022-09-09T05:02:24;6.30;;;2.90;;
58966;SDS011;44744;51.894;5.080;2022-09-09T05:03:24;7.40;;;3.30;;
58966;SDS011;44744;51.894;5.080;2022-09-09T05:04:25;7.00;;;3.60;;
58966;SDS011;44744;51.894;5.080;2022-09-09T05:05:25;9.20;;;3.40;;
58966;SDS011;44744;51.894;5.080;2022-09-09T05:06:25;8.20;;;3.50;;
58966;SDS011;44744;51.894;5.080;2022-09-09T05:07:26;7.80;;;3.40;;
58966;SDS011;44744;51.894;5.080;2022-09-09T05:08:29;6.80;;;3.40;;
58966;SDS011;44744;51.894;5.080;2022-09-09T05:09:34;8.20;;;3.60;;
58966;SDS011;44744;51.894;5.080;2022-09-09T05:10:36;7.30;;;3.00;;
58966;SDS011;44744;51.894;5.080;2022-09-09T05:11:37;7.20;;;3.20;;
58966;SDS011;44744;51.894;5.080;2022-09-09T05:12:38;7.50;;;3.20;;
58966;SDS011;44744;51.894;5.080;2022-09-09T05:13:38;8.10;;;3.10;;
58966;SDS011;44744;51.894;5.080;2022-09-09T05:14:39;5.30;;;2.90;;
58966;SDS011;44744;51.894;5.080;2022-09-09T05:15:39;6.00;;;3.30;;
58966;SDS011;44744;51.894;5.080;2022-09-09T05:16:39;7.10;;;3.20;;
58966;SDS011;44744;51.894;5.080;2022-09-09T05:17:40;9.70;;;3.40;;
58966;SDS011;44744;51.894;5.080;2022-09-09T05:18:40;6.50;;;2.70;;
58966;SDS011;44744;51.894;5.080;2022-09-09T05:19:41;8.10;;;3.60;;
58966;SDS011;44744;51.894;5.080;2022-09-09T05:20:41;7.50;;;3.60;;
58966;SDS011;44744;51.894;5.080;2022-09-09T05:21:42;6.00;;;3.80;;
58966;SDS011;44744;51.894;5.080;2022-09-09T05:22:42;6.80;;;4.10;;
58966;SDS011;44744;51.894;5.080;2022-09-09T05:23:42;8.60;;;3.50;;
58966;SDS011;44744;51.894;5.080;2022-09-09T05:24:43;6.30;;;3.40;;
58966;SDS011;44744;51.894;5.080;2022-09-09T05:25:43;9.00;;;4.30;;
58966;SDS011;44744;51.894;5.080;2022-09-09T05:26:43;10.80;;;4.30;;
58966;SDS011;44744;51.894;5.080;2022-09-09T05:27:43;7.90;;;4.70;;
58966;SDS011;44744;51.894;5.080;2022-09-09T05:28:44;9.50;;;4.70;;
58966;SDS011;44744;51.894;5.080;2022-09-09T05:29:45;11.80;;;5.10;;
58966;SDS011;44744;51.894;5.080;2022-09-09T05:30:46;8.90;;;4.30;;
58966;SDS011;44744;51.894;5.080;2022-09-09T05:31:46;8.50;;;3.40;;
58966;SDS011;44744;51.894;5.080;2022-09-09T05:32:46;5.90;;;3.30;;
58966;SDS011;44744;51.894;5.080;2022-09-09T05:33:47;6.50;;;3.40;;
58966;SDS011;44744;51.894;5.080;2022-09-09T05:34:48;10.20;;;4.00;;
58966;SDS011;44744;51.894;5.080;2022-09-09T05:35:54;10.00;;;3.40;;
58966;SDS011;44744;51.894;5.080;2022-09-09T05:36:55;7.50;;;3.50;;
58966;SDS011;44744;51.894;5.080;2022-09-09T05:37:58;9.30;;;3.50;;
58966;SDS011;44744;51.894;5.080;2022-09-09T05:38:59;8.40;;;3.40;;
58966;SDS011;44744;51.894;5.080;2022-09-09T05:40:00;10.10;;;3.90;;
58966;SDS011;44744;51.894;5.080;2022-09-09T05:41:00;6.40;;;3.30;;
58966;SDS011;44744;51.894;5.080;2022-09-09T05:43:02;8.60;;;2.90;;
58966;SDS011;44744;51.894;5.080;2022-09-09T05:44:03;11.90;;;3.50;;
58966;SDS011;44744;51.894;5.080;2022-09-09T05:45:03;8.30;;;3.50;;
58966;SDS011;44744;51.894;5.080;2022-09-09T05:46:05;10.10;;;4.10;;
58966;SDS011;44744;51.894;5.080;2022-09-09T05:47:10;8.50;;;3.90;;
58966;SDS011;44744;51.894;5.080;2022-09-09T05:48:10;6.60;;;4.50;;
58966;SDS011;44744;51.894;5.080;2022-09-09T05:49:14;8.00;;;3.80;;
58966;SDS011;44744;51.894;5.080;2022-09-09T05:50:15;7.00;;;3.20;;
58966;SDS011;44744;51.894;5.080;2022-09-09T05:51:16;7.30;;;3.70;;
58966;SDS011;44744;51.894;5.080;2022-09-09T05:52:26;7.20;;;3.90;;
58966;SDS011;44744;51.894;5.080;2022-09-09T05:53:27;8.20;;;3.70;;
58966;SDS011;44744;51.894;5.080;2022-09-09T05:54:28;11.00;;;3.90;;
58966;SDS011;44744;51.894;5.080;2022-09-09T05:55:28;8.90;;;4.10;;
58966;SDS011;44744;51.894;5.080;2022-09-09T05:56:28;10.80;;;4.10;;
58966;SDS011;44744;51.894;5.080;2022-09-09T05:57:29;12.00;;;4.10;;
58966;SDS011;44744;51.894;5.080;2022-09-09T05:58:32;13.60;;;3.40;;
58966;SDS011;44744;51.894;5.080;2022-09-09T05:59:33;7.00;;;3.60;;
58966;SDS011;44744;51.894;5.080;2022-09-09T06:00:36;6.70;;;3.20;;
58966;SDS011;44744;51.894;5.080;2022-09-09T06:01:37;9.60;;;3.30;;
58966;SDS011;44744;51.894;5.080;2022-09-09T06:02:37;11.40;;;3.50;;
58966;SDS011;44744;51.894;5.080;2022-09-09T06:03:39;11.10;;;3.90;;
58966;SDS011;44744;51.894;5.080;2022-09-09T06:04:42;6.10;;;3.20;;
58966;SDS011;44744;51.894;5.080;2022-09-09T06:05:43;6.00;;;2.90;;
58966;SDS011;44744;51.894;5.080;2022-09-09T06:06:46;11.50;;;3.40;;
58966;SDS011;44744;51.894;5.080;2022-09-09T06:07:46;6.80;;;3.20;;
58966;SDS011;44744;51.894;5.080;2022-09-09T06:08:47;9.00;;;3.10;;
58966;SDS011;44744;51.894;5.080;2022-09-09T06:09:47;9.20;;;3.30;;
58966;SDS011;44744;51.894;5.080;2022-09-09T06:10:48;9.60;;;3.30;;
58966;SDS011;44744;51.894;5.080;2022-09-09T06:11:48;6.80;;;3.20;;
58966;SDS011;44744;51.894;5.080;2022-09-09T06:12:48;10.50;;;3.40;;
58966;SDS011;44744;51.894;5.080;2022-09-09T06:13:49;6.20;;;3.00;;
58966;SDS011;44744;51.894;5.080;2022-09-09T06:14:50;9.90;;;3.10;;
58966;SDS011;44744;51.894;5.080;2022-09-09T06:15:50;9.10;;;3.50;;
58966;SDS011;44744;51.894;5.080;2022-09-09T06:16:53;11.60;;;3.10;;
58966;SDS011;44744;51.894;5.080;2022-09-09T06:17:54;9.70;;;3.00;;
58966;SDS011;44744;51.894;5.080;2022-09-09T06:18:55;8.30;;;3.10;;
58966;SDS011;44744;51.894;5.080;2022-09-09T06:19:56;8.70;;;3.20;;
58966;SDS011;44744;51.894;5.080;2022-09-09T06:21:04;10.50;;;3.20;;
58966;SDS011;44744;51.894;5.080;2022-09-09T06:22:06;8.30;;;3.20;;
58966;SDS011;44744;51.894;5.080;2022-09-09T06:23:07;9.50;;;3.00;;
58966;SDS011;44744;51.894;5.080;2022-09-09T06:24:08;8.90;;;4.20;;
58966;SDS011;44744;51.894;5.080;2022-09-09T06:25:08;16.50;;;4.10;;
58966;SDS011;44744;51.894;5.080;2022-09-09T06:27:13;9.80;;;3.50;;
58966;SDS011;44744;51.894;5.080;2022-09-09T06:28:14;12.10;;;3.60;;
58966;SDS011;44744;51.894;5.080;2022-09-09T06:29:15;8.00;;;3.40;;
58966;SDS011;44744;51.894;5.080;2022-09-09T06:30:22;8.80;;;2.80;;
58966;SDS011;44744;51.894;5.080;2022-09-09T06:31:22;7.80;;;3.10;;
58966;SDS011;44744;51.894;5.080;2022-09-09T06:32:25;10.30;;;4.20;;
58966;SDS011;44744;51.894;5.080;2022-09-09T06:33:25;10.50;;;3.10;;
58966;SDS011;44744;51.894;5.080;2022-09-09T06:34:26;5.60;;;3.00;;
58966;SDS011;44744;51.894;5.080;2022-09-09T06:35:26;9.70;;;2.90;;
58966;SDS011;44744;51.894;5.080;2022-09-09T06:36:28;7.80;;;3.40;;
58966;SDS011;44744;51.894;5.080;2022-09-09T06:37:29;9.50;;;3.40;;
58966;SDS011;44744;51.894;5.080;2022-09-09T06:38:29;7.80;;;3.00;;
58966;SDS011;44744;51.894;5.080;2022-09-09T06:39:30;9.00;;;3.30;;
58966;SDS011;44744;51.894;5.080;2022-09-09T06:40:30;8.40;;;3.60;;
58966;SDS011;44744;51.894;5.080;2022-09-09T06:41:31;7.30;;;3.00;;
58966;SDS011;44744;51.894;5.080;2022-09-09T06:42:32;8.20;;;3.20;;
58966;SDS011;44744;51.894;5.080;2022-09-09T06:43:32;10.10;;;3.10;;
58966;SDS011;44744;51.894;5.080;2022-09-09T06:44:32;8.60;;;2.80;;
58966;SDS011;44744;51.894;5.080;2022-09-09T06:45:33;10.00;;;2.90;;
58966;SDS011;44744;51.894;5.080;2022-09-09T06:46:33;7.60;;;3.20;;
58966;SDS011;44744;51.894;5.080;2022-09-09T06:47:33;9.60;;;3.00;;
58966;SDS011;44744;51.894;5.080;2022-09-09T06:48:34;9.70;;;3.20;;
58966;SDS011;44744;51.894;5.080;2022-09-09T06:49:34;8.50;;;3.00;;
58966;SDS011;44744;51.894;5.080;2022-09-09T06:50:34;10.40;;;2.90;;
58966;SDS011;44744;51.894;5.080;2022-09-09T06:51:35;10.90;;;3.00;;
58966;SDS011;44744;51.894;5.080;2022-09-09T06:52:37;13.70;;;3.90;;
58966;SDS011;44744;51.894;5.080;2022-09-09T06:53:37;7.80;;;2.50;;
58966;SDS011;44744;51.894;5.080;2022-09-09T06:54:39;9.90;;;2.60;;
58966;SDS011;44744;51.894;5.080;2022-09-09T06:55:39;10.00;;;3.40;;
58966;SDS011;44744;51.894;5.080;2022-09-09T06:56:40;9.60;;;3.00;;
58966;SDS011;44744;51.894;5.080;2022-09-09T06:57:43;10.40;;;3.40;;
58966;SDS011;44744;51.894;5.080;2022-09-09T06:58:43;10.30;;;3.20;;
58966;SDS011;44744;51.894;5.080;2022-09-09T06:59:45;12.90;;;3.20;;
58966;SDS011;44744;51.894;5.080;2022-09-09T07:00:47;14.80;;;3.50;;
58966;SDS011;44744;51.894;5.080;2022-09-09T07:01:47;9.90;;;3.90;;
58966;SDS011;44744;51.894;5.080;2022-09-09T07:02:48;14.20;;;3.20;;
58966;SDS011;44744;51.894;5.080;2022-09-09T07:03:51;12.40;;;3.70;;
58966;SDS011;44744;51.894;5.080;2022-09-09T07:04:54;10.10;;;3.20;;
58966;SDS011;44744;51.894;5.080;2022-09-09T07:05:55;9.10;;;3.20;;
58966;SDS011;44744;51.894;5.080;2022-09-09T07:06:55;10.40;;;3.50;;
58966;SDS011;44744;51.894;5.080;2022-09-09T07:07:56;13.10;;;3.10;;
58966;SDS011;44744;51.894;5.080;2022-09-09T07:08:57;7.30;;;3.20;;
58966;SDS011;44744;51.894;5.080;2022-09-09T07:09:59;10.80;;;3.30;;
58966;SDS011;44744;51.894;5.080;2022-09-09T07:11:03;8.70;;;2.70;;
58966;SDS011;44744;51.894;5.080;2022-09-09T07:13:13;8.10;;;2.60;;